KDGW/DGW METAR and TAF weather

Enter ICAO airport designator
Station Type Date Time Source
KDGW METAR 2018/04/19 12:53 UTC NOAA

KDGW 191253Z AUTO 13016G21KT 10SM CLR 00/M04 A3023 RMK AO2 SLP239 T00001039


Station Type Date Time Source
KDGW Decoded METAR 2018/04/19 12:53 UTC NOAA

DOUGLAS CONVERSE COUNTY, WY, United States (KDGW) 42-48N 105-23W 1499M
Apr 19, 2018 - 08:53 AM EDT / 2018.04.19 1253 UTC
Wind: from the SE (130 degrees) at 18 MPH (16 KT) gusting to 24 MPH (21 KT):0
Visibility: 10 mile(s):0
Sky conditions: clear
Temperature: 32.0 F (0.0 C)
Windchill: 21 F (-6 C):1
Dew Point: 25.0 F (-3.9 C)
Relative Humidity: 74%
Pressure (altimeter): 30.23 in. Hg (1023 hPa)
ob: KDGW 191253Z AUTO 13016G21KT 10SM CLR 00/M04 A3023 RMK AO2 SLP239 T00001039
cycle: 13

Station Type Date Time Source
KDGW TAF UTC NOAA

Error!


Example: see airport list